Desert Lake Discharge




Date Panel Temperature (degC) Canal Conductivity (mS/m) Canal Flow (cfs) Canal Height (ft) Water Temperature (degC) Air Temperature (degF) Water Balance (pH) Canal Conductivity in micro-Siemens (┬ÁS/cm)
04/01/2017 3.49 115.70 3,489.00
04/02/2017 3.49 115.80 3,489.00
04/03/2017 3.49 116.10 3,489.00
04/04/2017 3.50 116.40 3,500.00
04/05/2017 3.49 116.30 3,490.00
04/06/2017 3.49 115.90 3,489.00
04/07/2017 3.49 115.70 3,489.00
04/08/2017 3.49 115.50 3,489.00
04/09/2017 3.50 116.50 3,500.00
04/10/2017 3.50 116.50 3,495.00
04/11/2017 3.49 116.30 3,490.00
04/12/2017 3.49 116.10 3,490.00
04/13/2017 3.48 115.80 3,479.00
04/14/2017 3.49 116.00 3,490.00
04/15/2017 3.49 116.30 3,490.00
04/16/2017 3.48 116.20 3,484.00
04/17/2017 3.49 116.10 3,490.00
04/18/2017 3.49 116.10 3,490.00
04/19/2017 3.50 116.30 3,500.00
04/20/2017 3.50 116.50 3,499.00
04/21/2017 3.51 116.60 3,506.00
04/22/2017 3.50 116.50 3,501.00
04/23/2017 3.50 116.40 3,501.00
04/24/2017 3.51 116.50 3,506.00
04/25/2017 3.51 116.70 3,510.00
04/26/2017 3.51 116.60 3,506.00
04/27/2017 3.51 116.70 3,511.00
04/28/2017 3.51 116.90 3,511.00
04/29/2017 3.51 116.70 3,511.00
04/30/2017 3.51 116.70 3,510.00
Average 116.28
Maximum 116.90
Minimum 115.50
Total Volume (AF) 6,917.50